Manchester, Tennessee
Current Conditions -  °F | °C
As of 10:55 AM on Tuesday 27 Jan 2015 (Local Time) from KTHA Reporting Station
NA  
Wind Chill: 32°   Ceiling: NA
Heat Index: 39°   Visibility: 10mi
Dew Point: 32°   Wind: 12mph
Humidity: 75%   Direction: 340°NNW
Pressure: 30.03"   Gusts: NA
Location:  35.48°N, 86.08°W
Report Text: KTHA 271655Z AUTO 34010KT 10SM 04/00 A3003 RMK
Loading
Personal Weather Stations






























Interactive Weather Map New forecast layout! Learn more

10-Day Weather Forecast

Advertisements
Track Severe Weather on mobile